Time;durP1;ratioP1;P1;durP2;ratioP2;P2;SDS_P1;SDS_P2;PMS_P1;PMS_P2;Temp;Humidity;BMP_temperature;BMP_pressure;BME280_temperature;BME280_humidity;BME280_pressure;Samples;Min_cycle;Max_cycle;Signal;HPM_P1;HPM_P2
2021/01/20 00:02:25;;;;;;;17.67;10.60;;;11.30;71.20;;;;;;5031870;28;20336;-74
2021/01/20 00:04:51;;;;;;;17.35;8.85;;;11.20;71.00;;;;;;5022075;28;20127;-73
2021/01/20 00:07:16;;;;;;;15.20;9.75;;;11.20;71.10;;;;;;5049105;28;20017;-73
2021/01/20 00:09:42;;;;;;;16.40;9.75;;;11.20;71.30;;;;;;5019580;28;20053;-73
2021/01/20 00:12:08;;;;;;;14.55;9.50;;;11.20;71.30;;;;;;5036473;28;20072;-73
2021/01/20 00:14:34;;;;;;;16.45;10.05;;;11.20;71.10;;;;;;5039499;28;20095;-73
2021/01/20 00:16:59;;;;;;;16.92;9.48;;;11.20;71.00;;;;;;5021511;28;20040;-73
2021/01/20 00:19:25;;;;;;;18.30;9.85;;;11.20;71.10;;;;;;5046778;28;20032;-74
2021/01/20 00:21:51;;;;;;;14.43;9.13;;;11.30;71.10;;;;;;5030425;28;20123;-73
2021/01/20 00:24:16;;;;;;;16.45;9.23;;;11.20;71.00;;;;;;5009914;28;20033;-73
2021/01/20 00:26:42;;;;;;;13.93;9.43;;;11.30;70.90;;;;;;5012288;28;20041;-73
2021/01/20 00:29:08;;;;;;;14.32;8.68;;;11.20;71.20;;;;;;5029722;28;20052;-74
2021/01/20 00:31:33;;;;;;;18.33;9.77;;;11.20;71.50;;;;;;5041854;28;20083;-73
2021/01/20 00:33:59;;;;;;;17.13;9.70;;;11.30;71.60;;;;;;5009949;28;20416;-73
2021/01/20 00:36:24;;;;;;;14.57;9.20;;;11.30;71.50;;;;;;5033778;28;20304;-73
2021/01/20 00:38:50;;;;;;;15.40;9.40;;;11.20;71.50;;;;;;5047015;28;20036;-73
2021/01/20 00:41:16;;;;;;;14.90;10.50;;;11.20;71.70;;;;;;5031544;28;20029;-73
2021/01/20 00:43:42;;;;;;;15.52;10.02;;;11.10;71.80;;;;;;5047353;28;20557;-73
2021/01/20 00:46:07;;;;;;;14.90;8.88;;;11.10;71.70;;;;;;5030224;28;20060;-73
2021/01/20 00:48:33;;;;;;;13.40;8.77;;;11.20;71.60;;;;;;5022543;28;20040;-72
2021/01/20 00:50:58;;;;;;;12.52;8.43;;;11.20;71.50;;;;;;5005601;28;20037;-73
2021/01/20 00:53:24;;;;;;;14.07;8.70;;;11.10;71.40;;;;;;5036219;28;20108;-73
2021/01/20 00:55:50;;;;;;;12.30;7.82;;;11.10;71.20;;;;;;5048610;28;20540;-73
2021/01/20 00:58:16;;;;;;;15.45;8.93;;;11.00;71.20;;;;;;5039689;28;20051;-73
2021/01/20 01:00:42;;;;;;;13.80;8.45;;;11.00;71.40;;;;;;5048646;28;20046;-73
2021/01/20 01:03:08;;;;;;;15.95;9.23;;;11.00;71.00;;;;;;5049749;28;20617;-73
2021/01/20 01:05:34;;;;;;;15.75;9.00;;;11.00;70.80;;;;;;5029821;28;20033;-73
2021/01/20 01:08:00;;;;;;;14.98;8.50;;;11.00;70.80;;;;;;5041844;28;20108;-73
2021/01/20 01:10:26;;;;;;;11.65;7.85;;;11.00;70.70;;;;;;5000077;28;20117;-73
2021/01/20 01:12:51;;;;;;;18.80;7.93;;;11.00;70.50;;;;;;5045079;28;20490;-73
2021/01/20 01:15:17;;;;;;;14.98;7.28;;;11.00;70.30;;;;;;5051741;28;20029;-73
2021/01/20 01:17:43;;;;;;;11.15;7.05;;;11.00;70.50;;;;;;5053062;28;20116;-73
2021/01/20 01:20:09;;;;;;;12.30;7.05;;;11.00;70.40;;;;;;5030460;28;20147;-73
2021/01/20 01:22:34;;;;;;;15.35;7.45;;;11.00;70.40;;;;;;5051819;28;20407;-73
2021/01/20 01:25:00;;;;;;;11.63;6.88;;;11.00;70.50;;;;;;5052434;28;20041;-73
2021/01/20 01:27:26;;;;;;;12.95;6.80;;;11.00;70.20;;;;;;5029776;28;20094;-73
2021/01/20 01:29:51;;;;;;;11.40;7.22;;;11.10;70.00;;;;;;5031716;28;20055;-73
2021/01/20 01:32:17;;;;;;;14.77;7.13;;;11.00;69.90;;;;;;5035103;28;20047;-73
2021/01/20 01:34:46;;;;;;;14.05;6.72;;;11.10;69.80;;;;;;5051107;28;20451;-73
2021/01/20 01:37:12;;;;;;;13.40;7.68;;;11.00;69.70;;;;;;5052215;28;20029;-73
2021/01/20 01:39:37;;;;;;;11.40;7.13;;;11.00;69.70;;;;;;5046549;28;20036;-73
2021/01/20 01:42:04;;;;;;;10.98;6.43;;;11.10;69.80;;;;;;5051992;28;20036;-73
2021/01/20 01:44:31;;;;;;;11.65;6.63;;;11.10;69.40;;;;;;5040912;28;20017;-73
2021/01/20 01:46:57;;;;;;;13.15;7.38;;;11.10;69.30;;;;;;5046837;28;20029;-73
2021/01/20 01:49:24;;;;;;;12.38;6.57;;;11.00;69.60;;;;;;5049611;28;20033;-73
2021/01/20 01:51:50;;;;;;;13.57;7.57;;;11.10;69.80;;;;;;5044262;28;20029;-73
2021/01/20 01:54:16;;;;;;;12.50;6.75;;;11.10;69.60;;;;;;5052284;28;20097;-73
2021/01/20 01:56:43;;;;;;;10.95;6.97;;;11.10;69.60;;;;;;5011447;28;20025;-73
2021/01/20 01:59:08;;;;;;;12.38;6.53;;;11.10;69.40;;;;;;5044621;28;20506;-74
2021/01/20 02:01:34;;;;;;;10.55;6.53;;;11.10;69.50;;;;;;5050726;28;20037;-73
2021/01/20 02:04:00;;;;;;;19.15;7.53;;;11.10;69.40;;;;;;5028449;28;20035;-74
2021/01/20 02:06:25;;;;;;;11.73;6.15;;;11.10;69.40;;;;;;5028534;28;20178;-74
2021/01/20 02:08:52;;;;;;;15.95;6.32;;;11.10;69.40;;;;;;5050056;28;20041;-73
2021/01/20 02:11:22;;;;;;;22.23;8.48;;;11.10;69.60;;;;;;5045140;28;20039;-73
2021/01/20 02:14:02;;;;;;;14.00;7.03;;;11.10;69.50;;;;;;5032831;28;20109;-73
2021/01/20 02:16:31;;;;;;;12.93;6.72;;;11.20;69.70;;;;;;5041415;28;20025;-74
2021/01/20 02:18:58;;;;;;;11.32;6.75;;;11.10;69.70;;;;;;5049770;28;20037;-73
2021/01/20 02:21:33;;;;;;;11.13;6.93;;;11.10;69.50;;;;;;5023781;28;20091;-73
2021/01/20 02:24:03;;;;;;;13.65;6.72;;;11.10;69.90;;;;;;5049186;28;20116;-73
2021/01/20 02:26:47;;;;;;;10.23;6.10;;;11.00;70.20;;;;;;5052240;28;20096;-73
2021/01/20 02:29:29;;;;;;;10.00;7.60;;;11.00;70.40;;;;;;5035589;28;20040;-73
2021/01/20 02:31:56;;;;;;;13.13;6.88;;;11.00;70.50;;;;;;5038954;28;20034;-73
2021/01/20 02:34:23;;;;;;;11.23;6.28;;;11.00;70.50;;;;;;5043731;28;20051;-73
2021/01/20 02:36:50;;;;;;;15.18;6.43;;;11.00;70.40;;;;;;5033582;28;20036;-74
2021/01/20 02:39:18;;;;;;;11.40;5.80;;;11.00;70.50;;;;;;5050628;28;20122;-74
2021/01/20 02:41:44;;;;;;;10.88;6.35;;;11.00;70.70;;;;;;5041291;28;20033;-73
2021/01/20 02:44:09;;;;;;;12.13;6.03;;;10.90;70.60;;;;;;5032474;28;20029;-74
2021/01/20 02:46:36;;;;;;;13.10;7.10;;;11.00;70.70;;;;;;5032085;28;20076;-73
2021/01/20 02:49:03;;;;;;;12.40;7.68;;;11.00;70.90;;;;;;5049258;28;20091;-73
2021/01/20 02:51:31;;;;;;;12.70;7.78;;;11.00;71.10;;;;;;5017733;28;20129;-73
2021/01/20 02:54:01;;;;;;;13.77;7.13;;;10.90;71.20;;;;;;5031504;28;20467;-73
2021/01/20 02:56:28;;;;;;;11.70;6.53;;;11.00;71.50;;;;;;5049880;28;20025;-73
2021/01/20 02:58:55;;;;;;;11.52;6.53;;;11.00;71.30;;;;;;5045409;28;20049;-73
2021/01/20 03:01:24;;;;;;;11.30;6.50;;;11.10;71.30;;;;;;5037027;28;20033;-74
2021/01/20 03:03:51;;;;;;;11.82;6.80;;;11.10;71.20;;;;;;5043817;28;20060;-73
2021/01/20 03:06:17;;;;;;;13.68;6.97;;;11.10;71.10;;;;;;5040925;28;20188;-73
2021/01/20 03:08:45;;;;;;;12.25;7.07;;;11.10;70.90;;;;;;5030706;28;20111;-73
2021/01/20 03:11:11;;;;;;;13.07;7.85;;;11.10;71.00;;;;;;5050922;28;20090;-73
2021/01/20 03:13:37;;;;;;;12.23;6.65;;;11.00;70.80;;;;;;5045170;28;20029;-73
2021/01/20 03:16:05;;;;;;;10.88;6.30;;;11.10;71.00;;;;;;5029619;28;20029;-73
2021/01/20 03:18:31;;;;;;;12.68;7.00;;;11.10;71.20;;;;;;5039718;28;20029;-74
2021/01/20 03:20:57;;;;;;;11.20;7.15;;;11.00;71.30;;;;;;5019734;28;20410;-73
2021/01/20 03:23:22;;;;;;;11.35;5.85;;;11.10;71.60;;;;;;5033035;28;20071;-73
2021/01/20 03:25:48;;;;;;;11.95;6.95;;;11.00;71.50;;;;;;5032096;28;20037;-72
2021/01/20 03:28:14;;;;;;;13.88;7.78;;;11.10;71.70;;;;;;5049350;28;20037;-73
2021/01/20 03:30:39;;;;;;;12.27;7.20;;;11.10;71.90;;;;;;5050199;28;20075;-73
2021/01/20 03:33:05;;;;;;;10.95;7.32;;;11.10;71.90;;;;;;5019799;28;20037;-73
2021/01/20 03:35:34;;;;;;;11.90;6.40;;;11.10;71.90;;;;;;5030310;28;20056;-73
2021/01/20 03:38:03;;;;;;;11.73;6.15;;;11.10;71.90;;;;;;5038246;28;20060;-73
2021/01/20 03:40:28;;;;;;;10.05;6.60;;;11.10;71.90;;;;;;5048736;28;20033;-74
2021/01/20 03:42:54;;;;;;;11.15;5.85;;;11.00;72.00;;;;;;5049942;28;20111;-73
2021/01/20 03:45:20;;;;;;;11.95;6.80;;;11.00;72.10;;;;;;5029456;28;20080;-73
2021/01/20 03:47:45;;;;;;;15.55;7.70;;;11.00;71.90;;;;;;5037381;28;20857;-73
2021/01/20 03:50:11;;;;;;;12.02;6.45;;;11.10;71.60;;;;;;5037249;28;20428;-73
2021/01/20 03:52:37;;;;;;;11.55;6.05;;;11.00;71.70;;;;;;5050453;28;20053;-73
2021/01/20 03:55:03;;;;;;;11.93;5.65;;;11.00;71.70;;;;;;5027947;28;20056;-74
2021/01/20 03:57:29;;;;;;;10.18;6.38;;;11.00;71.60;;;;;;5048498;28;20088;-73
2021/01/20 03:59:54;;;;;;;9.90;5.20;;;11.00;71.40;;;;;;5032854;28;20036;-73
2021/01/20 04:02:20;;;;;;;10.38;5.93;;;11.10;71.00;;;;;;5036931;28;20456;-73
2021/01/20 04:04:46;;;;;;;12.57;6.07;;;11.10;71.10;;;;;;5041022;28;20049;-73
2021/01/20 04:07:12;;;;;;;8.55;5.25;;;11.10;70.80;;;;;;5033579;28;20127;-73
2021/01/20 04:09:37;;;;;;;9.93;5.40;;;11.10;70.80;;;;;;5006652;28;20041;-74
2021/01/20 04:12:03;;;;;;;11.73;5.78;;;11.10;70.50;;;;;;5049438;28;20037;-73
2021/01/20 04:14:29;;;;;;;8.80;5.15;;;11.10;70.60;;;;;;5048015;28;20049;-73
2021/01/20 04:16:55;;;;;;;9.07;4.63;;;11.20;70.70;;;;;;5030427;28;20043;-72
2021/01/20 04:19:20;;;;;;;13.50;6.00;;;11.20;70.40;;;;;;5014404;28;20103;-74
2021/01/20 04:21:48;;;;;;;10.48;5.50;;;11.30;70.20;;;;;;5029714;28;20385;-73
2021/01/20 04:24:15;;;;;;;11.13;5.65;;;11.30;69.70;;;;;;5018403;28;20039;-74
2021/01/20 04:26:42;;;;;;;7.55;4.45;;;11.40;69.60;;;;;;5049838;28;20033;-74
2021/01/20 04:29:07;;;;;;;9.70;4.68;;;11.30;69.60;;;;;;5043332;28;20402;-73
2021/01/20 04:31:33;;;;;;;10.13;5.40;;;11.30;69.30;;;;;;5010501;28;20025;-73
2021/01/20 04:33:59;;;;;;;9.88;5.38;;;11.40;69.40;;;;;;5033441;28;20042;-73
2021/01/20 04:36:25;;;;;;;9.32;4.75;;;11.40;69.30;;;;;;5047280;28;20063;-73
2021/01/20 04:38:51;;;;;;;8.35;4.78;;;11.40;69.20;;;;;;5008997;28;20475;-73
2021/01/20 04:41:16;;;;;;;9.43;5.40;;;11.40;69.30;;;;;;5035695;28;20147;-73
2021/01/20 04:43:43;;;;;;;10.15;4.90;;;11.40;69.40;;;;;;5043640;28;20113;-74
2021/01/20 04:46:09;;;;;;;7.82;4.75;;;11.40;69.30;;;;;;5028085;28;20037;-73
2021/01/20 04:48:35;;;;;;;13.60;6.13;;;11.50;69.20;;;;;;5038614;28;20041;-73
2021/01/20 04:51:06;;;;;;;10.02;5.25;;;11.50;69.00;;;;;;5024795;28;20029;-73
2021/01/20 04:53:33;;;;;;;7.65;4.82;;;11.50;69.30;;;;;;5035423;28;20033;-74
2021/01/20 04:56:09;;;;;;;8.98;4.90;;;11.50;69.40;;;;;;5053437;28;20037;-73
2021/01/20 04:58:35;;;;;;;10.93;4.72;;;11.50;69.60;;;;;;5051124;28;20045;-73
2021/01/20 05:01:02;;;;;;;10.05;5.13;;;11.50;69.70;;;;;;5050376;28;20028;-73
2021/01/20 05:03:27;;;;;;;10.07;5.00;;;11.50;69.80;;;;;;5016689;28;20365;-73
2021/01/20 05:05:57;;;;;;;8.40;4.28;;;11.60;70.10;;;;;;5040789;28;20071;-73
2021/01/20 05:08:23;;;;;;;9.75;5.40;;;11.60;69.90;;;;;;5053502;28;20045;-73
2021/01/20 05:10:49;;;;;;;8.32;4.45;;;11.60;69.90;;;;;;5052843;28;20471;-73
2021/01/20 05:13:32;;;;;;;10.95;5.97;;;11.50;69.70;;;;;;5052780;28;20037;-73
2021/01/20 05:15:58;;;;;;;10.05;4.35;;;11.60;69.80;;;;;;5041269;28;20447;-73
2021/01/20 05:18:24;;;;;;;9.00;5.50;;;11.60;69.70;;;;;;5038827;28;20044;-73
2021/01/20 05:20:50;;;;;;;9.73;4.97;;;11.60;69.60;;;;;;5040944;28;20052;-73
2021/01/20 05:23:16;;;;;;;8.98;5.32;;;11.60;69.30;;;;;;5051680;28;20516;-73
2021/01/20 05:25:44;;;;;;;9.88;5.47;;;11.60;69.10;;;;;;5034257;28;20032;-73
2021/01/20 05:28:27;;;;;;;8.73;4.93;;;11.60;68.90;;;;;;5047408;28;20394;-73
2021/01/20 05:30:53;;;;;;;9.38;4.28;;;11.60;68.90;;;;;;5053256;28;20139;-73
2021/01/20 05:33:22;;;;;;;7.30;4.03;;;11.60;68.90;;;;;;5048964;28;20134;-72
2021/01/20 05:36:06;;;;;;;8.75;4.32;;;11.70;68.50;;;;;;5049025;28;20025;-73
2021/01/20 05:38:33;;;;;;;8.60;4.35;;;11.60;68.60;;;;;;5037279;28;20041;-73
2021/01/20 05:41:23;;;;;;;7.68;4.25;;;11.70;68.10;;;;;;5019099;28;20120;-73
2021/01/20 05:43:54;;;;;;;7.78;4.28;;;11.70;68.10;;;;;;5034605;28;20033;-73
2021/01/20 05:46:34;;;;;;;10.45;4.40;;;11.60;68.10;;;;;;5041227;28;20056;-73
2021/01/20 05:49:00;;;;;;;9.48;4.25;;;11.60;68.00;;;;;;5040033;28;20037;-73
2021/01/20 05:51:36;;;;;;;7.70;3.97;;;11.60;68.10;;;;;;5042446;28;20463;-73
2021/01/20 05:54:03;;;;;;;9.02;4.65;;;11.60;67.90;;;;;;5030354;28;20025;-73
2021/01/20 05:56:30;;;;;;;9.23;4.25;;;11.60;67.60;;;;;;5034185;28;20033;-73
2021/01/20 05:58:56;;;;;;;7.65;4.53;;;11.60;67.50;;;;;;5044746;28;20114;-73
2021/01/20 06:01:23;;;;;;;8.23;4.47;;;11.60;67.80;;;;;;5047562;28;20104;-73
2021/01/20 06:03:49;;;;;;;9.18;4.40;;;11.70;67.60;;;;;;5034247;28;20130;-74
2021/01/20 06:06:18;;;;;;;11.45;4.35;;;11.60;67.50;;;;;;5017016;28;20032;-73
2021/01/20 06:08:45;;;;;;;9.00;4.68;;;11.70;67.30;;;;;;5043319;28;20123;-74
2021/01/20 06:11:11;;;;;;;8.98;4.35;;;11.70;67.30;;;;;;5051073;28;20078;-73
2021/01/20 06:13:38;;;;;;;7.50;4.00;;;11.70;67.30;;;;;;5034837;28;20028;-73
2021/01/20 06:16:17;;;;;;;8.50;4.15;;;11.70;67.10;;;;;;5033759;28;20497;-73
2021/01/20 06:18:50;;;;;;;7.35;3.80;;;11.70;66.80;;;;;;5044854;28;20116;-73
2021/01/20 06:21:17;;;;;;;6.47;3.75;;;11.70;66.90;;;;;;5051190;28;20052;-74
2021/01/20 06:24:00;;;;;;;7.75;4.07;;;11.80;66.80;;;;;;5049412;28;20025;-74
2021/01/20 06:26:26;;;;;;;8.35;4.50;;;11.80;66.60;;;;;;5051650;28;20029;-73
2021/01/20 06:29:01;;;;;;;9.20;4.75;;;11.80;66.50;;;;;;5014997;28;20041;-73
2021/01/20 06:31:28;;;;;;;8.85;4.65;;;11.80;66.50;;;;;;5028267;28;20025;-73
2021/01/20 06:33:54;;;;;;;7.15;3.97;;;11.80;66.40;;;;;;5051113;28;20025;-73
2021/01/20 06:36:38;;;;;;;7.78;3.90;;;11.80;66.40;;;;;;5024550;28;20033;-73
2021/01/20 06:39:27;;;;;;;9.32;4.95;;;11.80;66.20;;;;;;5029735;28;20422;-74
2021/01/20 06:41:53;;;;;;;8.05;4.22;;;11.80;66.10;;;;;;5036112;28;20139;-73
2021/01/20 06:44:19;;;;;;;7.30;3.80;;;11.80;66.20;;;;;;5048900;28;20562;-73
2021/01/20 06:46:57;;;;;;;7.85;3.90;;;11.80;66.20;;;;;;5049065;28;20037;-74
2021/01/20 06:49:33;;;;;;;8.27;3.78;;;11.80;66.30;;;;;;5031263;28;20026;-74
2021/01/20 06:52:15;;;;;;;7.95;3.50;;;11.80;66.10;;;;;;5019792;28;20041;-74
2021/01/20 06:54:46;;;;;;;8.07;4.25;;;11.80;65.90;;;;;;5016487;28;20037;-75
2021/01/20 06:57:31;;;;;;;7.57;3.65;;;11.80;66.20;;;;;;5033691;28;20017;-73
2021/01/20 07:00:15;;;;;;;6.65;3.20;;;11.80;66.20;;;;;;5030763;28;20041;-73
2021/01/20 07:02:59;;;;;;;6.50;3.97;;;11.80;66.20;;;;;;5028377;28;20025;-72
2021/01/20 07:05:36;;;;;;;9.13;4.10;;;11.80;66.30;;;;;;5026357;28;20440;-71
2021/01/20 07:08:07;;;;;;;9.52;3.40;;;11.80;66.20;;;;;;5028664;28;20099;-71
2021/01/20 07:11:02;;;;;;;9.82;3.92;;;11.90;66.30;;;;;;5031436;28;20057;-71
2021/01/20 07:13:35;;;;;;;7.50;3.30;;;11.80;66.30;;;;;;5042727;28;20040;-71
2021/01/20 07:16:03;;;;;;;7.00;3.70;;;11.90;66.30;;;;;;5031911;28;20171;-71
2021/01/20 07:18:30;;;;;;;8.45;4.03;;;11.90;66.20;;;;;;5041348;28;20037;-70
2021/01/20 07:20:56;;;;;;;6.65;3.63;;;11.90;66.40;;;;;;5049116;28;20033;-70
2021/01/20 07:23:22;;;;;;;8.27;4.57;;;11.90;66.50;;;;;;5038110;28;20033;-70
2021/01/20 07:25:50;;;;;;;11.55;6.00;;;11.90;66.50;;;;;;5045340;28;20035;-70
2021/01/20 07:28:16;;;;;;;9.35;4.95;;;11.90;66.40;;;;;;5021875;28;20025;-70
2021/01/20 07:30:42;;;;;;;7.30;4.03;;;11.90;66.70;;;;;;5047143;28;20391;-71
2021/01/20 07:33:15;;;;;;;5.53;2.97;;;11.90;66.70;;;;;;5030148;28;20034;-72
2021/01/20 07:35:41;;;;;;;7.53;3.53;;;11.90;66.60;;;;;;5014814;28;20029;-72
2021/01/20 07:38:06;;;;;;;6.85;2.83;;;11.90;66.90;;;;;;5038112;28;20036;-72
2021/01/20 07:40:34;;;;;;;6.13;3.00;;;13.00;67.70;;;;;;5027409;28;20025;-72
2021/01/20 07:43:00;;;;;;;6.70;3.53;;;11.90;67.20;;;;;;5018328;28;20167;-72
2021/01/20 07:45:32;;;;;;;6.15;3.10;;;11.90;67.30;;;;;;5035840;28;20478;-72
2021/01/20 07:47:58;;;;;;;6.05;3.20;;;11.90;67.40;;;;;;5036669;28;20041;-73
2021/01/20 07:50:40;;;;;;;6.45;2.83;;;12.00;67.70;;;;;;5030567;28;20110;-73
2021/01/20 07:53:06;;;;;;;7.28;3.10;;;11.90;67.60;;;;;;5028134;28;20040;-73
2021/01/20 07:55:32;;;;;;;8.15;3.92;;;11.90;67.80;;;;;;5049749;28;20029;-73
2021/01/20 07:58:00;;;;;;;6.45;3.20;;;11.90;68.00;;;;;;5037336;28;20057;-74
2021/01/20 08:00:25;;;;;;;7.82;3.25;;;12.00;68.10;;;;;;5029849;28;20033;-73
2021/01/20 08:02:51;;;;;;;6.80;3.42;;;12.00;68.10;;;;;;5036518;28;20037;-74
2021/01/20 08:05:17;;;;;;;9.20;3.58;;;12.00;68.10;;;;;;5044457;28;20047;-74
2021/01/20 08:07:43;;;;;;;6.00;3.05;;;12.00;68.30;;;;;;5026721;28;20029;-72
2021/01/20 08:10:19;;;;;;;9.13;3.25;;;12.10;68.50;;;;;;5038639;28;20562;-73
2021/01/20 08:12:46;;;;;;;6.72;3.30;;;12.00;68.60;;;;;;5038208;28;20100;-72
2021/01/20 08:15:14;;;;;;;10.02;4.22;;;12.00;68.70;;;;;;5033444;28;20055;-73
2021/01/20 08:17:41;;;;;;;7.63;3.13;;;12.00;68.90;;;;;;5049037;28;20048;-73
2021/01/20 08:20:10;;;;;;;7.22;3.58;;;12.00;69.10;;;;;;5000046;28;20033;-73
2021/01/20 08:22:37;;;;;;;7.15;3.50;;;12.00;69.30;;;;;;5043122;28;20029;-73
2021/01/20 08:25:03;;;;;;;7.13;3.15;;;12.00;69.50;;;;;;5003028;28;20180;-73
2021/01/20 08:27:34;;;;;;;6.50;3.83;;;12.00;69.60;;;;;;5019698;28;20044;-72
2021/01/20 08:30:00;;;;;;;8.02;3.70;;;12.10;69.60;;;;;;5036518;28;20039;-72
2021/01/20 08:32:26;;;;;;;9.02;3.88;;;12.10;69.70;;;;;;5025353;28;20064;-72
2021/01/20 08:34:55;;;;;;;6.50;3.55;;;12.10;69.80;;;;;;5020752;28;20119;-72
2021/01/20 08:37:39;;;;;;;7.85;3.17;;;12.10;69.90;;;;;;5030301;28;20374;-72
2021/01/20 08:40:07;;;;;;;8.82;4.05;;;12.10;70.00;;;;;;5049121;28;20036;-72
2021/01/20 08:42:32;;;;;;;6.38;3.50;;;12.20;70.10;;;;;;5044285;28;20455;-72
2021/01/20 08:45:20;;;;;;;5.97;3.20;;;12.20;70.10;;;;;;5042017;28;20036;-72
2021/01/20 08:48:05;;;;;;;6.28;3.13;;;12.20;70.00;;;;;;5024149;28;20109;-72
2021/01/20 08:50:33;;;;;;;8.07;3.40;;;12.30;70.10;;;;;;5048263;28;20025;-73
2021/01/20 08:53:01;;;;;;;6.65;3.30;;;12.20;70.10;;;;;;5030629;28;20510;-72
2021/01/20 08:55:38;;;;;;;6.75;3.35;;;12.20;70.40;;;;;;5019542;28;20059;-73
2021/01/20 08:58:28;;;;;;;8.20;3.42;;;12.30;70.40;;;;;;5039378;28;20045;-72
2021/01/20 09:00:55;;;;;;;7.07;3.58;;;12.30;70.40;;;;;;5021045;28;20029;-72
2021/01/20 09:03:21;;;;;;;6.50;3.20;;;12.40;70.40;;;;;;5039458;28;20055;-72
2021/01/20 09:05:49;;;;;;;6.22;3.00;;;12.40;70.20;;;;;;5043317;28;20075;-72
2021/01/20 09:08:15;;;;;;;9.25;3.75;;;12.50;70.00;;;;;;5029499;28;20041;-72
2021/01/20 09:10:42;;;;;;;5.18;2.67;;;12.60;69.60;;;;;;5030606;28;20049;-72
2021/01/20 09:13:08;;;;;;;7.65;3.70;;;12.60;69.60;;;;;;5030106;28;20033;-72
2021/01/20 09:15:34;;;;;;;5.97;2.72;;;12.60;69.50;;;;;;5012929;28;20033;-72
2021/01/20 09:18:00;;;;;;;5.10;2.67;;;12.60;69.50;;;;;;5028049;28;20132;-72
2021/01/20 09:20:26;;;;;;;5.35;2.83;;;12.60;69.40;;;;;;5038549;28;20047;-72
2021/01/20 09:22:52;;;;;;;4.85;2.53;;;12.50;69.30;;;;;;5039684;28;20032;-73
2021/01/20 09:25:17;;;;;;;5.75;2.78;;;12.50;69.70;;;;;;5044535;28;20100;-72
2021/01/20 09:27:43;;;;;;;6.43;3.00;;;12.50;69.40;;;;;;5037367;28;20090;-72
2021/01/20 09:30:10;;;;;;;6.40;2.80;;;12.60;69.30;;;;;;5025009;28;20496;-72
2021/01/20 09:32:36;;;;;;;6.07;2.78;;;12.60;69.30;;;;;;5038587;28;20079;-72
2021/01/20 09:35:14;;;;;;;5.97;2.85;;;12.70;69.20;;;;;;5028001;28;20542;-72
2021/01/20 09:37:41;;;;;;;4.85;2.30;;;12.70;68.10;;;;;;5014774;28;20101;-73
2021/01/20 09:40:10;;;;;;;6.07;2.50;;;12.70;67.80;;;;;;5033372;28;20063;-72
2021/01/20 09:42:36;;;;;;;4.53;2.30;;;12.70;67.50;;;;;;5036460;28;20033;-72
2021/01/20 09:45:04;;;;;;;6.68;3.05;;;12.80;67.40;;;;;;5032659;28;20040;-72
2021/01/20 09:47:29;;;;;;;5.68;3.00;;;12.80;66.50;;;;;;5027496;28;20025;-72
2021/01/20 09:49:55;;;;;;;6.53;2.40;;;12.80;66.20;;;;;;5043778;28;20029;-73
2021/01/20 09:52:25;;;;;;;5.85;2.65;;;12.90;66.20;;;;;;5045699;28;20037;-73
2021/01/20 09:54:52;;;;;;;5.50;2.97;;;13.00;65.90;;;;;;5008289;28;20044;-72
2021/01/20 09:57:18;;;;;;;6.07;2.60;;;13.10;65.70;;;;;;5045696;28;20053;-72
2021/01/20 09:59:43;;;;;;;6.15;2.80;;;13.20;65.00;;;;;;5042075;28;20048;-72
2021/01/20 10:02:09;;;;;;;5.07;2.80;;;13.30;64.00;;;;;;4996390;28;20226;-73
2021/01/20 10:04:34;;;;;;;6.38;2.58;;;13.40;63.80;;;;;;4981801;28;20033;-73
2021/01/20 10:07:00;;;;;;;7.72;2.67;;;13.70;63.40;;;;;;5048403;28;20148;-73
2021/01/20 10:09:26;;;;;;;7.65;2.78;;;13.80;63.20;;;;;;5038533;28;20053;-73
2021/01/20 10:11:52;;;;;;;6.53;3.15;;;14.00;61.90;;;;;;5007894;28;20138;-73
2021/01/20 10:14:17;;;;;;;5.88;2.78;;;14.00;60.90;;;;;;5026642;28;20037;-73
2021/01/20 10:16:47;;;;;;;6.35;2.92;;;14.00;60.50;;;;;;5033338;28;20481;-73
2021/01/20 10:19:14;;;;;;;4.63;2.22;;;13.90;60.60;;;;;;5017516;28;20377;-73
2021/01/20 10:21:40;;;;;;;5.28;2.40;;;13.80;59.80;;;;;;5037125;28;20017;-73
2021/01/20 10:24:07;;;;;;;6.30;2.22;;;13.80;60.10;;;;;;5035784;28;20036;-74
2021/01/20 10:26:33;;;;;;;4.03;2.20;;;13.80;59.60;;;;;;4999486;28;20029;-73
2021/01/20 10:28:59;;;;;;;6.13;2.45;;;13.80;59.60;;;;;;5051759;28;20055;-73
2021/01/20 10:31:31;;;;;;;4.43;2.20;;;13.80;59.10;;;;;;5022693;28;20079;-73
2021/01/20 10:33:58;;;;;;;4.63;2.57;;;13.80;58.40;;;;;;5025220;28;20061;-73
2021/01/20 10:36:24;;;;;;;5.07;2.20;;;13.80;57.90;;;;;;5020529;28;20029;-73
2021/01/20 10:38:50;;;;;;;4.10;2.10;;;13.80;57.70;;;;;;5036487;28;20372;-73
2021/01/20 10:41:18;;;;;;;4.60;2.22;;;13.70;57.90;;;;;;5050556;28;20525;-73
2021/01/20 10:43:44;;;;;;;5.80;2.58;;;13.70;58.10;;;;;;5016944;28;20029;-73
2021/01/20 10:46:10;;;;;;;5.15;2.30;;;13.60;57.80;;;;;;5047777;28;20041;-73
2021/01/20 10:48:36;;;;;;;4.68;2.30;;;13.60;57.80;;;;;;5009031;28;20122;-73
2021/01/20 10:51:01;;;;;;;5.20;2.40;;;13.60;58.30;;;;;;5045427;28;20033;-73
2021/01/20 10:53:27;;;;;;;4.82;2.67;;;13.60;58.40;;;;;;5041709;28;20083;-73
2021/01/20 10:55:53;;;;;;;7.70;2.47;;;13.60;57.80;;;;;;5030934;28;20029;-73
2021/01/20 10:58:18;;;;;;;4.93;2.10;;;13.50;58.10;;;;;;5045894;28;20057;-73
2021/01/20 11:00:47;;;;;;;5.55;2.50;;;13.50;58.40;;;;;;5038815;28;20044;-73
2021/01/20 11:03:13;;;;;;;5.70;2.22;;;13.50;57.10;;;;;;5025209;28;20425;-73
2021/01/20 11:05:39;;;;;;;4.40;2.15;;;13.50;57.00;;;;;;5021931;28;20033;-72
2021/01/20 11:08:05;;;;;;;5.43;2.78;;;13.40;56.80;;;;;;5042276;28;20032;-72
2021/01/20 11:10:31;;;;;;;5.32;2.45;;;13.50;57.20;;;;;;5029423;28;20428;-72
2021/01/20 11:12:56;;;;;;;5.35;2.15;;;13.60;56.50;;;;;;5048615;28;20083;-73
2021/01/20 11:15:22;;;;;;;5.55;2.40;;;13.60;55.70;;;;;;5012324;28;20033;-72
2021/01/20 11:17:49;;;;;;;5.22;2.78;;;13.60;55.10;;;;;;5044426;28;20067;-72
2021/01/20 11:20:16;;;;;;;6.85;2.55;;;13.70;55.40;;;;;;5023935;28;20475;-72
2021/01/20 11:22:41;;;;;;;6.10;2.72;;;13.80;55.20;;;;;;5036722;28;20033;-72
2021/01/20 11:25:08;;;;;;;6.70;2.78;;;13.90;54.70;;;;;;5018793;28;20037;-72
2021/01/20 11:27:34;;;;;;;4.35;1.90;;;14.00;54.20;;;;;;5040474;28;20211;-72
2021/01/20 11:29:59;;;;;;;5.70;2.63;;;14.10;54.20;;;;;;5017080;28;20054;-72
2021/01/20 11:32:25;;;;;;;8.38;2.92;;;14.10;53.90;;;;;;5014876;28;20041;-72
2021/01/20 11:34:51;;;;;;;5.07;2.30;;;14.10;53.70;;;;;;5037996;28;20041;-72
2021/01/20 11:37:16;;;;;;;6.05;2.65;;;14.20;53.10;;;;;;5043906;28;20475;-72
2021/01/20 11:39:42;;;;;;;8.10;2.80;;;14.50;53.10;;;;;;5042240;28;20044;-72
2021/01/20 11:42:07;;;;;;;8.80;4.47;;;14.20;52.90;;;;;;5041388;28;20040;-72
2021/01/20 11:44:35;;;;;;;7.95;3.15;;;14.20;53.30;;;;;;5021875;28;20046;-73
2021/01/20 11:47:02;;;;;;;5.68;2.75;;;14.10;53.20;;;;;;5040319;28;20475;-72
2021/01/20 11:49:29;;;;;;;5.75;2.67;;;14.20;53.10;;;;;;5037724;28;20035;-72
2021/01/20 11:51:54;;;;;;;5.40;2.88;;;14.10;52.90;;;;;;5017226;28;20127;-72
2021/01/20 11:54:20;;;;;;;5.22;2.28;;;14.10;52.10;;;;;;5047573;28;20204;-72
2021/01/20 11:56:46;;;;;;;6.57;2.80;;;14.10;52.80;;;;;;5040573;28;20061;-72
2021/01/20 11:59:11;;;;;;;6.70;2.50;;;14.10;52.00;;;;;;5050852;28;20057;-72
2021/01/20 12:01:37;;;;;;;7.07;2.50;;;14.00;52.10;;;;;;5048973;28;20033;-72
2021/01/20 12:04:03;;;;;;;6.28;2.60;;;14.00;52.20;;;;;;5047341;28;20036;-72
2021/01/20 12:06:29;;;;;;;5.45;2.42;;;14.10;51.90;;;;;;5019111;28;20061;-73
2021/01/20 12:08:55;;;;;;;5.20;2.50;;;14.10;51.90;;;;;;5033505;28;20057;-72
2021/01/20 12:11:24;;;;;;;5.32;2.50;;;14.20;51.60;;;;;;5025870;28;20029;-73
2021/01/20 12:13:50;;;;;;;4.68;2.22;;;14.20;51.40;;;;;;5035590;28;21116;-74
2021/01/20 12:16:16;;;;;;;5.60;2.28;;;14.20;51.70;;;;;;5038826;28;20155;-73
2021/01/20 12:18:41;;;;;;;9.27;2.50;;;14.20;51.30;;;;;;4993709;28;20574;-73
2021/01/20 12:21:07;;;;;;;6.03;2.45;;;14.20;51.60;;;;;;5022334;28;20502;-73
2021/01/20 12:23:33;;;;;;;6.55;2.10;;;14.20;51.80;;;;;;5021092;28;20372;-73
2021/01/20 12:25:59;;;;;;;6.80;2.40;;;14.20;52.10;;;;;;5030465;28;20041;-73
2021/01/20 12:28:24;;;;;;;6.85;2.40;;;14.20;52.40;;;;;;5037889;28;20033;-71
2021/01/20 12:30:50;;;;;;;5.97;1.90;;;14.10;52.30;;;;;;5034827;28;20141;-72
2021/01/20 12:33:16;;;;;;;4.55;2.50;;;14.10;52.30;;;;;;5035702;28;20048;-72
2021/01/20 12:35:42;;;;;;;8.55;2.88;;;14.10;52.40;;;;;;5035699;28;20060;-72
2021/01/20 12:38:07;;;;;;;6.28;2.42;;;14.00;52.30;;;;;;5033064;28;20045;-72
2021/01/20 12:40:33;;;;;;;5.25;2.65;;;14.00;52.50;;;;;;5005743;28;20043;-72
2021/01/20 12:42:59;;;;;;;6.25;2.50;;;14.00;51.90;;;;;;5036949;28;20033;-72
2021/01/20 12:45:24;;;;;;;6.63;2.28;;;13.90;52.20;;;;;;5035588;28;20034;-71
2021/01/20 12:47:50;;;;;;;5.35;2.47;;;13.80;52.20;;;;;;5015461;28;20029;-72